sensor_id;sensor_type;location;lat;lon;timestamp;P1;durP1;ratioP1;P2;durP2;ratioP2
54177;SDS011;40085;53.004;6.770;2023-03-14T00:00:47;5.85;;;1.65;;
54177;SDS011;40085;53.004;6.770;2023-03-14T00:03:13;8.50;;;2.88;;
54177;SDS011;40085;53.004;6.770;2023-03-14T00:05:39;10.02;;;1.77;;
54177;SDS011;40085;53.004;6.770;2023-03-14T00:08:04;10.27;;;1.77;;
54177;SDS011;40085;53.004;6.770;2023-03-14T00:10:30;6.50;;;1.13;;
54177;SDS011;40085;53.004;6.770;2023-03-14T00:12:55;5.47;;;1.38;;
54177;SDS011;40085;53.004;6.770;2023-03-14T00:15:21;11.38;;;2.08;;
54177;SDS011;40085;53.004;6.770;2023-03-14T00:17:47;18.48;;;1.83;;
54177;SDS011;40085;53.004;6.770;2023-03-14T00:20:12;4.10;;;1.33;;
54177;SDS011;40085;53.004;6.770;2023-03-14T00:22:38;4.38;;;1.48;;
54177;SDS011;40085;53.004;6.770;2023-03-14T00:25:05;8.73;;;1.95;;
54177;SDS011;40085;53.004;6.770;2023-03-14T00:27:34;6.68;;;1.08;;
54177;SDS011;40085;53.004;6.770;2023-03-14T00:29:59;5.90;;;2.60;;
54177;SDS011;40085;53.004;6.770;2023-03-14T00:32:25;11.13;;;1.70;;
54177;SDS011;40085;53.004;6.770;2023-03-14T00:34:50;9.27;;;1.85;;
54177;SDS011;40085;53.004;6.770;2023-03-14T00:37:16;7.63;;;1.75;;
54177;SDS011;40085;53.004;6.770;2023-03-14T00:39:42;9.63;;;2.03;;
54177;SDS011;40085;53.004;6.770;2023-03-14T00:42:07;2.90;;;1.33;;
54177;SDS011;40085;53.004;6.770;2023-03-14T00:44:33;9.30;;;2.00;;
54177;SDS011;40085;53.004;6.770;2023-03-14T00:46:59;5.22;;;1.17;;
54177;SDS011;40085;53.004;6.770;2023-03-14T00:49:25;14.10;;;1.48;;
54177;SDS011;40085;53.004;6.770;2023-03-14T00:51:51;5.00;;;1.40;;
54177;SDS011;40085;53.004;6.770;2023-03-14T00:54:17;4.38;;;1.67;;
54177;SDS011;40085;53.004;6.770;2023-03-14T00:56:43;4.32;;;1.35;;
54177;SDS011;40085;53.004;6.770;2023-03-14T00:59:09;9.02;;;2.13;;
54177;SDS011;40085;53.004;6.770;2023-03-14T01:01:34;10.15;;;1.90;;
54177;SDS011;40085;53.004;6.770;2023-03-14T01:04:00;4.93;;;1.67;;
54177;SDS011;40085;53.004;6.770;2023-03-14T01:06:27;9.20;;;1.60;;
54177;SDS011;40085;53.004;6.770;2023-03-14T01:08:54;7.88;;;2.05;;
54177;SDS011;40085;53.004;6.770;2023-03-14T01:11:24;2.97;;;1.10;;
54177;SDS011;40085;53.004;6.770;2023-03-14T01:16:17;5.05;;;1.35;;
54177;SDS011;40085;53.004;6.770;2023-03-14T01:18:44;9.95;;;2.20;;
54177;SDS011;40085;53.004;6.770;2023-03-14T01:21:24;4.43;;;1.27;;
54177;SDS011;40085;53.004;6.770;2023-03-14T01:23:52;13.65;;;2.53;;
54177;SDS011;40085;53.004;6.770;2023-03-14T01:26:20;9.18;;;2.22;;
54177;SDS011;40085;53.004;6.770;2023-03-14T01:28:48;5.00;;;1.95;;
54177;SDS011;40085;53.004;6.770;2023-03-14T01:31:14;8.10;;;1.63;;
54177;SDS011;40085;53.004;6.770;2023-03-14T01:33:40;4.70;;;1.65;;
54177;SDS011;40085;53.004;6.770;2023-03-14T01:36:06;6.43;;;2.03;;
54177;SDS011;40085;53.004;6.770;2023-03-14T01:38:34;11.70;;;2.13;;
54177;SDS011;40085;53.004;6.770;2023-03-14T01:41:01;7.88;;;1.90;;
54177;SDS011;40085;53.004;6.770;2023-03-14T01:43:27;5.32;;;2.08;;
54177;SDS011;40085;53.004;6.770;2023-03-14T01:48:48;7.50;;;2.05;;
54177;SDS011;40085;53.004;6.770;2023-03-14T01:51:44;9.38;;;1.70;;
54177;SDS011;40085;53.004;6.770;2023-03-14T01:54:25;10.73;;;1.50;;
54177;SDS011;40085;53.004;6.770;2023-03-14T01:57:41;7.72;;;1.40;;
54177;SDS011;40085;53.004;6.770;2023-03-14T01:59:46;12.73;;;2.28;;
54177;SDS011;40085;53.004;6.770;2023-03-14T02:02:16;5.78;;;1.63;;
54177;SDS011;40085;53.004;6.770;2023-03-14T02:04:41;4.55;;;1.63;;
54177;SDS011;40085;53.004;6.770;2023-03-14T02:09:59;3.08;;;1.30;;
54177;SDS011;40085;53.004;6.770;2023-03-14T02:12:28;6.72;;;2.20;;
54177;SDS011;40085;53.004;6.770;2023-03-14T02:14:53;4.55;;;1.63;;
54177;SDS011;40085;53.004;6.770;2023-03-14T02:17:19;6.40;;;1.30;;
54177;SDS011;40085;53.004;6.770;2023-03-14T02:22:16;4.25;;;1.90;;
54177;SDS011;40085;53.004;6.770;2023-03-14T02:27:20;4.65;;;1.17;;
54177;SDS011;40085;53.004;6.770;2023-03-14T02:29:51;3.83;;;1.30;;
54177;SDS011;40085;53.004;6.770;2023-03-14T02:32:20;4.28;;;1.20;;
54177;SDS011;40085;53.004;6.770;2023-03-14T02:34:48;1.42;;;0.80;;
54177;SDS011;40085;53.004;6.770;2023-03-14T02:37:17;4.15;;;1.00;;
54177;SDS011;40085;53.004;6.770;2023-03-14T02:39:45;2.03;;;1.08;;
54177;SDS011;40085;53.004;6.770;2023-03-14T02:42:14;6.38;;;1.23;;
54177;SDS011;40085;53.004;6.770;2023-03-14T02:44:50;2.17;;;1.10;;
54177;SDS011;40085;53.004;6.770;2023-03-14T02:47:18;5.75;;;1.73;;
54177;SDS011;40085;53.004;6.770;2023-03-14T02:49:47;6.55;;;1.80;;
54177;SDS011;40085;53.004;6.770;2023-03-14T02:52:13;4.85;;;1.88;;
54177;SDS011;40085;53.004;6.770;2023-03-14T02:54:39;4.55;;;1.65;;
54177;SDS011;40085;53.004;6.770;2023-03-14T02:57:04;7.55;;;1.88;;
54177;SDS011;40085;53.004;6.770;2023-03-14T02:59:30;4.68;;;1.40;;
54177;SDS011;40085;53.004;6.770;2023-03-14T03:01:55;3.88;;;1.65;;
54177;SDS011;40085;53.004;6.770;2023-03-14T03:04:21;5.53;;;1.70;;
54177;SDS011;40085;53.004;6.770;2023-03-14T03:06:47;6.93;;;1.98;;
54177;SDS011;40085;53.004;6.770;2023-03-14T03:09:12;7.07;;;1.63;;
54177;SDS011;40085;53.004;6.770;2023-03-14T03:11:38;2.63;;;1.48;;
54177;SDS011;40085;53.004;6.770;2023-03-14T03:14:03;7.30;;;1.33;;
54177;SDS011;40085;53.004;6.770;2023-03-14T03:16:29;5.70;;;1.48;;
54177;SDS011;40085;53.004;6.770;2023-03-14T03:18:54;2.28;;;1.25;;
54177;SDS011;40085;53.004;6.770;2023-03-14T03:21:20;4.40;;;1.77;;
54177;SDS011;40085;53.004;6.770;2023-03-14T03:23:48;3.60;;;1.67;;
54177;SDS011;40085;53.004;6.770;2023-03-14T03:26:14;5.47;;;1.52;;
54177;SDS011;40085;53.004;6.770;2023-03-14T03:28:40;5.07;;;1.50;;
54177;SDS011;40085;53.004;6.770;2023-03-14T03:31:10;2.90;;;1.42;;
54177;SDS011;40085;53.004;6.770;2023-03-14T03:33:36;3.92;;;1.38;;
54177;SDS011;40085;53.004;6.770;2023-03-14T03:36:03;2.47;;;0.85;;
54177;SDS011;40085;53.004;6.770;2023-03-14T03:38:28;5.80;;;1.35;;
54177;SDS011;40085;53.004;6.770;2023-03-14T03:40:54;2.97;;;0.98;;
54177;SDS011;40085;53.004;6.770;2023-03-14T03:43:19;4.05;;;1.50;;
54177;SDS011;40085;53.004;6.770;2023-03-14T03:45:45;1.67;;;1.08;;
54177;SDS011;40085;53.004;6.770;2023-03-14T03:48:11;3.08;;;1.23;;
54177;SDS011;40085;53.004;6.770;2023-03-14T03:50:36;4.93;;;1.83;;
54177;SDS011;40085;53.004;6.770;2023-03-14T03:53:02;8.85;;;1.48;;
54177;SDS011;40085;53.004;6.770;2023-03-14T03:55:28;6.32;;;1.67;;
54177;SDS011;40085;53.004;6.770;2023-03-14T03:57:54;3.30;;;1.40;;
54177;SDS011;40085;53.004;6.770;2023-03-14T04:00:19;2.35;;;1.40;;
54177;SDS011;40085;53.004;6.770;2023-03-14T04:02:45;9.75;;;1.48;;
54177;SDS011;40085;53.004;6.770;2023-03-14T04:05:11;4.93;;;1.98;;
54177;SDS011;40085;53.004;6.770;2023-03-14T04:07:36;6.93;;;1.85;;
54177;SDS011;40085;53.004;6.770;2023-03-14T04:10:02;8.93;;;1.77;;
54177;SDS011;40085;53.004;6.770;2023-03-14T04:12:28;11.90;;;2.00;;
54177;SDS011;40085;53.004;6.770;2023-03-14T04:14:54;5.80;;;2.03;;
54177;SDS011;40085;53.004;6.770;2023-03-14T04:17:20;8.13;;;1.83;;
54177;SDS011;40085;53.004;6.770;2023-03-14T04:19:45;2.55;;;1.60;;
54177;SDS011;40085;53.004;6.770;2023-03-14T04:22:11;3.78;;;1.50;;
54177;SDS011;40085;53.004;6.770;2023-03-14T04:24:37;2.17;;;1.33;;
54177;SDS011;40085;53.004;6.770;2023-03-14T04:27:02;2.58;;;1.38;;
54177;SDS011;40085;53.004;6.770;2023-03-14T04:29:28;2.50;;;1.30;;
54177;SDS011;40085;53.004;6.770;2023-03-14T04:31:53;4.25;;;1.55;;
54177;SDS011;40085;53.004;6.770;2023-03-14T04:34:19;3.58;;;1.52;;
54177;SDS011;40085;53.004;6.770;2023-03-14T04:36:45;3.22;;;1.70;;
54177;SDS011;40085;53.004;6.770;2023-03-14T04:39:10;2.45;;;1.58;;
54177;SDS011;40085;53.004;6.770;2023-03-14T04:41:36;2.75;;;1.45;;
54177;SDS011;40085;53.004;6.770;2023-03-14T04:44:01;3.03;;;1.75;;
54177;SDS011;40085;53.004;6.770;2023-03-14T04:46:27;0.93;;;0.85;;
54177;SDS011;40085;53.004;6.770;2023-03-14T04:48:53;1.75;;;1.30;;
54177;SDS011;40085;53.004;6.770;2023-03-14T04:51:18;2.05;;;1.20;;
54177;SDS011;40085;53.004;6.770;2023-03-14T04:53:44;4.50;;;1.38;;
54177;SDS011;40085;53.004;6.770;2023-03-14T04:56:09;3.45;;;1.58;;
54177;SDS011;40085;53.004;6.770;2023-03-14T04:58:37;1.63;;;1.05;;
54177;SDS011;40085;53.004;6.770;2023-03-14T05:01:03;3.92;;;1.20;;
54177;SDS011;40085;53.004;6.770;2023-03-14T05:03:30;6.65;;;1.90;;
54177;SDS011;40085;53.004;6.770;2023-03-14T05:05:55;7.50;;;1.63;;
54177;SDS011;40085;53.004;6.770;2023-03-14T05:08:22;5.93;;;1.55;;
54177;SDS011;40085;53.004;6.770;2023-03-14T05:10:52;4.75;;;1.20;;
54177;SDS011;40085;53.004;6.770;2023-03-14T05:13:20;3.85;;;1.55;;
54177;SDS011;40085;53.004;6.770;2023-03-14T05:15:46;2.75;;;1.55;;
54177;SDS011;40085;53.004;6.770;2023-03-14T05:18:12;4.15;;;1.58;;
54177;SDS011;40085;53.004;6.770;2023-03-14T05:20:38;4.30;;;1.48;;
54177;SDS011;40085;53.004;6.770;2023-03-14T05:23:03;5.35;;;1.40;;
54177;SDS011;40085;53.004;6.770;2023-03-14T05:25:29;7.00;;;1.38;;
54177;SDS011;40085;53.004;6.770;2023-03-14T05:27:54;3.38;;;1.63;;
54177;SDS011;40085;53.004;6.770;2023-03-14T05:30:20;3.47;;;1.75;;
54177;SDS011;40085;53.004;6.770;2023-03-14T05:32:47;7.20;;;2.47;;
54177;SDS011;40085;53.004;6.770;2023-03-14T05:35:13;2.90;;;1.38;;
54177;SDS011;40085;53.004;6.770;2023-03-14T05:37:38;7.07;;;1.52;;
54177;SDS011;40085;53.004;6.770;2023-03-14T05:40:05;3.65;;;2.40;;
54177;SDS011;40085;53.004;6.770;2023-03-14T05:42:32;5.13;;;1.90;;
54177;SDS011;40085;53.004;6.770;2023-03-14T05:44:58;2.33;;;1.38;;
54177;SDS011;40085;53.004;6.770;2023-03-14T05:47:23;2.28;;;1.55;;
54177;SDS011;40085;53.004;6.770;2023-03-14T05:49:49;4.18;;;1.88;;
54177;SDS011;40085;53.004;6.770;2023-03-14T05:52:15;2.08;;;1.58;;
54177;SDS011;40085;53.004;6.770;2023-03-14T05:54:40;5.10;;;1.95;;
54177;SDS011;40085;53.004;6.770;2023-03-14T05:57:06;5.60;;;2.53;;
54177;SDS011;40085;53.004;6.770;2023-03-14T05:59:32;8.98;;;1.92;;
54177;SDS011;40085;53.004;6.770;2023-03-14T06:02:04;3.67;;;1.88;;
54177;SDS011;40085;53.004;6.770;2023-03-14T06:04:32;3.78;;;1.80;;
54177;SDS011;40085;53.004;6.770;2023-03-14T06:06:58;6.32;;;1.60;;
54177;SDS011;40085;53.004;6.770;2023-03-14T06:09:27;6.28;;;2.25;;
54177;SDS011;40085;53.004;6.770;2023-03-14T06:11:53;4.50;;;1.92;;
54177;SDS011;40085;53.004;6.770;2023-03-14T06:14:18;3.83;;;1.65;;
54177;SDS011;40085;53.004;6.770;2023-03-14T06:16:44;3.83;;;2.08;;
54177;SDS011;40085;53.004;6.770;2023-03-14T06:19:10;2.45;;;1.73;;
54177;SDS011;40085;53.004;6.770;2023-03-14T06:21:36;4.10;;;1.73;;
54177;SDS011;40085;53.004;6.770;2023-03-14T06:24:05;2.63;;;1.20;;
54177;SDS011;40085;53.004;6.770;2023-03-14T06:26:31;5.93;;;2.03;;
54177;SDS011;40085;53.004;6.770;2023-03-14T06:29:00;5.18;;;1.65;;
54177;SDS011;40085;53.004;6.770;2023-03-14T06:31:30;1.40;;;1.17;;
54177;SDS011;40085;53.004;6.770;2023-03-14T06:33:59;2.58;;;0.90;;
54177;SDS011;40085;53.004;6.770;2023-03-14T06:36:26;2.25;;;0.85;;
54177;SDS011;40085;53.004;6.770;2023-03-14T06:38:52;3.45;;;1.60;;
54177;SDS011;40085;53.004;6.770;2023-03-14T06:41:18;2.85;;;1.40;;
54177;SDS011;40085;53.004;6.770;2023-03-14T06:43:45;4.60;;;1.67;;
54177;SDS011;40085;53.004;6.770;2023-03-14T06:46:12;3.78;;;1.73;;
54177;SDS011;40085;53.004;6.770;2023-03-14T06:48:37;3.25;;;1.50;;
54177;SDS011;40085;53.004;6.770;2023-03-14T06:51:03;2.05;;;1.60;;
54177;SDS011;40085;53.004;6.770;2023-03-14T06:53:32;2.90;;;1.33;;
54177;SDS011;40085;53.004;6.770;2023-03-14T06:56:01;1.80;;;1.20;;
54177;SDS011;40085;53.004;6.770;2023-03-14T06:58:26;3.00;;;1.27;;
54177;SDS011;40085;53.004;6.770;2023-03-14T07:00:55;5.93;;;1.40;;
54177;SDS011;40085;53.004;6.770;2023-03-14T07:03:23;3.22;;;1.58;;
54177;SDS011;40085;53.004;6.770;2023-03-14T07:05:51;2.30;;;1.17;;
54177;SDS011;40085;53.004;6.770;2023-03-14T07:08:17;3.03;;;0.82;;
54177;SDS011;40085;53.004;6.770;2023-03-14T07:10:44;4.68;;;1.45;;
54177;SDS011;40085;53.004;6.770;2023-03-14T07:13:11;2.03;;;1.17;;
54177;SDS011;40085;53.004;6.770;2023-03-14T07:15:36;1.63;;;1.02;;
54177;SDS011;40085;53.004;6.770;2023-03-14T07:18:03;2.15;;;1.17;;
54177;SDS011;40085;53.004;6.770;2023-03-14T07:20:32;0.47;;;0.40;;
54177;SDS011;40085;53.004;6.770;2023-03-14T07:22:57;0.20;;;0.20;;
54177;SDS011;40085;53.004;6.770;2023-03-14T07:25:25;1.00;;;0.20;;
54177;SDS011;40085;53.004;6.770;2023-03-14T07:27:51;0.98;;;0.22;;
54177;SDS011;40085;53.004;6.770;2023-03-14T07:30:16;2.88;;;1.13;;
54177;SDS011;40085;53.004;6.770;2023-03-14T07:32:43;1.55;;;0.60;;
54177;SDS011;40085;53.004;6.770;2023-03-14T07:35:10;3.03;;;0.60;;
54177;SDS011;40085;53.004;6.770;2023-03-14T07:37:36;2.42;;;0.40;;
54177;SDS011;40085;53.004;6.770;2023-03-14T07:40:07;2.50;;;0.40;;
54177;SDS011;40085;53.004;6.770;2023-03-14T07:42:35;0.57;;;0.40;;
54177;SDS011;40085;53.004;6.770;2023-03-14T07:45:02;1.88;;;0.60;;
54177;SDS011;40085;53.004;6.770;2023-03-14T07:47:28;4.78;;;0.52;;
54177;SDS011;40085;53.004;6.770;2023-03-14T07:49:56;4.53;;;0.77;;
54177;SDS011;40085;53.004;6.770;2023-03-14T07:52:22;1.27;;;0.40;;
54177;SDS011;40085;53.004;6.770;2023-03-14T07:54:48;1.65;;;0.40;;
54177;SDS011;40085;53.004;6.770;2023-03-14T07:57:14;4.35;;;0.50;;
54177;SDS011;40085;53.004;6.770;2023-03-14T07:59:45;1.02;;;0.35;;
54177;SDS011;40085;53.004;6.770;2023-03-14T08:02:14;5.40;;;0.38;;
54177;SDS011;40085;53.004;6.770;2023-03-14T08:04:41;3.95;;;0.40;;
54177;SDS011;40085;53.004;6.770;2023-03-14T08:07:07;0.15;;;0.15;;
54177;SDS011;40085;53.004;6.770;2023-03-14T08:09:33;3.63;;;0.30;;
54177;SDS011;40085;53.004;6.770;2023-03-14T08:12:01;0.30;;;0.25;;
54177;SDS011;40085;53.004;6.770;2023-03-14T08:14:27;0.63;;;0.30;;
54177;SDS011;40085;53.004;6.770;2023-03-14T08:16:54;0.52;;;0.20;;
54177;SDS011;40085;53.004;6.770;2023-03-14T08:19:20;0.20;;;0.20;;
54177;SDS011;40085;53.004;6.770;2023-03-14T08:21:46;0.20;;;0.20;;
54177;SDS011;40085;53.004;6.770;2023-03-14T08:24:11;0.45;;;0.30;;
54177;SDS011;40085;53.004;6.770;2023-03-14T08:26:43;0.40;;;0.40;;
54177;SDS011;40085;53.004;6.770;2023-03-14T08:29:09;0.30;;;0.30;;
54177;SDS011;40085;53.004;6.770;2023-03-14T08:31:37;0.90;;;0.30;;
54177;SDS011;40085;53.004;6.770;2023-03-14T08:34:03;0.43;;;0.40;;
54177;SDS011;40085;53.004;6.770;2023-03-14T08:36:34;0.20;;;0.20;;
54177;SDS011;40085;53.004;6.770;2023-03-14T08:39:00;0.20;;;0.20;;
54177;SDS011;40085;53.004;6.770;2023-03-14T08:41:26;0.20;;;0.20;;
54177;SDS011;40085;53.004;6.770;2023-03-14T08:43:52;2.45;;;0.30;;
54177;SDS011;40085;53.004;6.770;2023-03-14T08:46:18;0.65;;;0.30;;
54177;SDS011;40085;53.004;6.770;2023-03-14T08:48:44;0.65;;;0.35;;
54177;SDS011;40085;53.004;6.770;2023-03-14T08:51:10;2.53;;;0.30;;
54177;SDS011;40085;53.004;6.770;2023-03-14T08:53:38;0.73;;;0.40;;
54177;SDS011;40085;53.004;6.770;2023-03-14T08:56:05;0.32;;;0.30;;
54177;SDS011;40085;53.004;6.770;2023-03-14T08:58:35;0.38;;;0.38;;
54177;SDS011;40085;53.004;6.770;2023-03-14T09:01:04;0.85;;;0.52;;
54177;SDS011;40085;53.004;6.770;2023-03-14T09:03:30;0.35;;;0.20;;
54177;SDS011;40085;53.004;6.770;2023-03-14T09:06:00;2.08;;;0.60;;
54177;SDS011;40085;53.004;6.770;2023-03-14T09:08:28;0.75;;;0.20;;
54177;SDS011;40085;53.004;6.770;2023-03-14T09:10:54;0.45;;;0.30;;
54177;SDS011;40085;53.004;6.770;2023-03-14T09:13:19;3.90;;;0.50;;
54177;SDS011;40085;53.004;6.770;2023-03-14T09:15:49;1.23;;;0.50;;
54177;SDS011;40085;53.004;6.770;2023-03-14T09:18:23;2.20;;;0.75;;
54177;SDS011;40085;53.004;6.770;2023-03-14T09:20:48;1.92;;;0.52;;
54177;SDS011;40085;53.004;6.770;2023-03-14T09:23:15;5.43;;;0.60;;
54177;SDS011;40085;53.004;6.770;2023-03-14T09:25:40;4.65;;;0.68;;
54177;SDS011;40085;53.004;6.770;2023-03-14T09:28:06;1.95;;;0.52;;
54177;SDS011;40085;53.004;6.770;2023-03-14T09:30:35;4.60;;;0.88;;
54177;SDS011;40085;53.004;6.770;2023-03-14T09:33:00;0.35;;;0.35;;
54177;SDS011;40085;53.004;6.770;2023-03-14T09:35:28;2.38;;;0.85;;
54177;SDS011;40085;53.004;6.770;2023-03-14T09:37:53;5.00;;;0.85;;
54177;SDS011;40085;53.004;6.770;2023-03-14T09:40:19;1.98;;;0.73;;
54177;SDS011;40085;53.004;6.770;2023-03-14T09:42:50;5.68;;;0.75;;
54177;SDS011;40085;53.004;6.770;2023-03-14T09:45:18;3.35;;;0.47;;
54177;SDS011;40085;53.004;6.770;2023-03-14T09:47:51;9.02;;;0.70;;
54177;SDS011;40085;53.004;6.770;2023-03-14T09:50:20;1.42;;;0.85;;
54177;SDS011;40085;53.004;6.770;2023-03-14T09:52:47;6.32;;;0.80;;
54177;SDS011;40085;53.004;6.770;2023-03-14T09:55:21;0.98;;;0.70;;
54177;SDS011;40085;53.004;6.770;2023-03-14T09:57:48;5.70;;;0.88;;
54177;SDS011;40085;53.004;6.770;2023-03-14T10:00:23;6.43;;;1.45;;
54177;SDS011;40085;53.004;6.770;2023-03-14T10:02:54;5.03;;;1.67;;
54177;SDS011;40085;53.004;6.770;2023-03-14T10:05:39;8.40;;;0.88;;
54177;SDS011;40085;53.004;6.770;2023-03-14T10:08:11;8.85;;;0.90;;
54177;SDS011;40085;53.004;6.770;2023-03-14T10:10:42;8.50;;;0.98;;
54177;SDS011;40085;53.004;6.770;2023-03-14T10:16:13;4.18;;;1.13;;
54177;SDS011;40085;53.004;6.770;2023-03-14T10:18:41;3.13;;;1.02;;
54177;SDS011;40085;53.004;6.770;2023-03-14T10:21:21;9.90;;;1.77;;
54177;SDS011;40085;53.004;6.770;2023-03-14T10:23:52;3.13;;;0.98;;
54177;SDS011;40085;53.004;6.770;2023-03-14T10:26:28;2.50;;;0.70;;
54177;SDS011;40085;53.004;6.770;2023-03-14T10:29:11;13.45;;;1.55;;
54177;SDS011;40085;53.004;6.770;2023-03-14T10:31:47;2.70;;;0.90;;
54177;SDS011;40085;53.004;6.770;2023-03-14T10:34:28;9.68;;;0.88;;
54177;SDS011;40085;53.004;6.770;2023-03-14T10:36:57;6.25;;;1.50;;
54177;SDS011;40085;53.004;6.770;2023-03-14T10:39:40;5.03;;;0.93;;
54177;SDS011;40085;53.004;6.770;2023-03-14T10:42:12;4.07;;;1.30;;
54177;SDS011;40085;53.004;6.770;2023-03-14T10:44:48;6.78;;;0.93;;
54177;SDS011;40085;53.004;6.770;2023-03-14T10:47:24;8.32;;;1.17;;
54177;SDS011;40085;53.004;6.770;2023-03-14T10:49:53;5.78;;;0.93;;
54177;SDS011;40085;53.004;6.770;2023-03-14T10:52:23;4.70;;;1.58;;
54177;SDS011;40085;53.004;6.770;2023-03-14T10:55:00;8.23;;;1.05;;
54177;SDS011;40085;53.004;6.770;2023-03-14T10:57:38;2.72;;;0.77;;
54177;SDS011;40085;53.004;6.770;2023-03-14T11:00:08;3.83;;;1.02;;
54177;SDS011;40085;53.004;6.770;2023-03-14T11:03:03;4.30;;;0.80;;
54177;SDS011;40085;53.004;6.770;2023-03-14T11:08:40;7.47;;;1.38;;
54177;SDS011;40085;53.004;6.770;2023-03-14T11:11:18;0.98;;;0.45;;
54177;SDS011;40085;53.004;6.770;2023-03-14T11:17:00;2.33;;;0.63;;
54177;SDS011;40085;53.004;6.770;2023-03-14T11:19:51;2.90;;;0.70;;
54177;SDS011;40085;53.004;6.770;2023-03-14T11:26:05;8.32;;;1.23;;
54177;SDS011;40085;53.004;6.770;2023-03-14T11:29:19;1.92;;;0.70;;
54177;SDS011;40085;53.004;6.770;2023-03-14T11:31:48;8.57;;;1.13;;
54177;SDS011;40085;53.004;6.770;2023-03-14T11:34:22;1.83;;;0.50;;
54177;SDS011;40085;53.004;6.770;2023-03-14T11:37:03;0.70;;;0.43;;
54177;SDS011;40085;53.004;6.770;2023-03-14T11:39:44;1.48;;;0.82;;
54177;SDS011;40085;53.004;6.770;2023-03-14T11:42:19;2.20;;;0.50;;
54177;SDS011;40085;53.004;6.770;2023-03-14T11:44:48;8.02;;;0.90;;
54177;SDS011;40085;53.004;6.770;2023-03-14T11:47:32;8.82;;;1.15;;
54177;SDS011;40085;53.004;6.770;2023-03-14T11:52:38;6.57;;;0.60;;
54177;SDS011;40085;53.004;6.770;2023-03-14T11:57:41;5.00;;;0.80;;
54177;SDS011;40085;53.004;6.770;2023-03-14T12:16:57;1.70;;;1.08;;
54177;SDS011;40085;53.004;6.770;2023-03-14T12:20:00;1.77;;;0.50;;
54177;SDS011;40085;53.004;6.770;2023-03-14T12:22:35;4.03;;;0.77;;
54177;SDS011;40085;53.004;6.770;2023-03-14T12:27:43;1.33;;;0.47;;
54177;SDS011;40085;53.004;6.770;2023-03-14T12:30:38;2.60;;;0.63;;
54177;SDS011;40085;53.004;6.770;2023-03-14T12:35:42;1.27;;;0.45;;
54177;SDS011;40085;53.004;6.770;2023-03-14T12:38:20;1.20;;;0.70;;
54177;SDS011;40085;53.004;6.770;2023-03-14T12:41:29;4.78;;;1.00;;
54177;SDS011;40085;53.004;6.770;2023-03-14T12:44:39;1.90;;;0.70;;
54177;SDS011;40085;53.004;6.770;2023-03-14T12:47:39;4.55;;;0.63;;
54177;SDS011;40085;53.004;6.770;2023-03-14T12:50:07;3.25;;;0.77;;
54177;SDS011;40085;53.004;6.770;2023-03-14T12:52:54;1.45;;;0.52;;
54177;SDS011;40085;53.004;6.770;2023-03-14T12:55:43;1.58;;;0.80;;
54177;SDS011;40085;53.004;6.770;2023-03-14T13:01:02;1.15;;;1.08;;
54177;SDS011;40085;53.004;6.770;2023-03-14T13:03:42;1.05;;;0.50;;
54177;SDS011;40085;53.004;6.770;2023-03-14T13:06:44;0.38;;;0.32;;
54177;SDS011;40085;53.004;6.770;2023-03-14T13:11:51;4.55;;;0.82;;
54177;SDS011;40085;53.004;6.770;2023-03-14T13:14:20;4.43;;;1.30;;
54177;SDS011;40085;53.004;6.770;2023-03-14T13:16:48;1.52;;;0.60;;
54177;SDS011;40085;53.004;6.770;2023-03-14T13:19:18;0.97;;;0.27;;
54177;SDS011;40085;53.004;6.770;2023-03-14T13:21:49;2.80;;;0.68;;
54177;SDS011;40085;53.004;6.770;2023-03-14T13:24:34;3.63;;;0.80;;
54177;SDS011;40085;53.004;6.770;2023-03-14T13:27:01;1.50;;;1.05;;
54177;SDS011;40085;53.004;6.770;2023-03-14T13:29:27;1.83;;;1.00;;
54177;SDS011;40085;53.004;6.770;2023-03-14T13:31:56;4.97;;;1.15;;
54177;SDS011;40085;53.004;6.770;2023-03-14T13:34:30;0.88;;;0.60;;
54177;SDS011;40085;53.004;6.770;2023-03-14T13:36:58;1.23;;;0.73;;
54177;SDS011;40085;53.004;6.770;2023-03-14T13:39:28;1.02;;;0.57;;
54177;SDS011;40085;53.004;6.770;2023-03-14T13:41:57;5.80;;;0.65;;
54177;SDS011;40085;53.004;6.770;2023-03-14T13:44:27;4.38;;;0.75;;
54177;SDS011;40085;53.004;6.770;2023-03-14T13:47:16;1.90;;;0.52;;
54177;SDS011;40085;53.004;6.770;2023-03-14T13:49:43;3.55;;;0.80;;
54177;SDS011;40085;53.004;6.770;2023-03-14T13:52:31;3.92;;;0.85;;
54177;SDS011;40085;53.004;6.770;2023-03-14T13:55:04;1.73;;;0.35;;
54177;SDS011;40085;53.004;6.770;2023-03-14T14:00:23;3.03;;;0.60;;
54177;SDS011;40085;53.004;6.770;2023-03-14T14:02:53;0.82;;;0.50;;
54177;SDS011;40085;53.004;6.770;2023-03-14T14:05:20;2.58;;;0.68;;
54177;SDS011;40085;53.004;6.770;2023-03-14T14:07:46;2.38;;;0.50;;
54177;SDS011;40085;53.004;6.770;2023-03-14T14:10:14;3.08;;;0.80;;
54177;SDS011;40085;53.004;6.770;2023-03-14T14:15:17;0.47;;;0.30;;
54177;SDS011;40085;53.004;6.770;2023-03-14T14:17:51;0.90;;;0.40;;
54177;SDS011;40085;53.004;6.770;2023-03-14T14:20:30;1.40;;;0.63;;
54177;SDS011;40085;53.004;6.770;2023-03-14T14:23:21;3.90;;;0.60;;
54177;SDS011;40085;53.004;6.770;2023-03-14T14:25:53;9.18;;;0.60;;
54177;SDS011;40085;53.004;6.770;2023-03-14T14:28:31;1.88;;;0.43;;
54177;SDS011;40085;53.004;6.770;2023-03-14T14:31:20;1.15;;;0.45;;
54177;SDS011;40085;53.004;6.770;2023-03-14T14:36:40;1.38;;;0.40;;
54177;SDS011;40085;53.004;6.770;2023-03-14T14:39:26;4.13;;;0.93;;
54177;SDS011;40085;53.004;6.770;2023-03-14T14:42:02;2.03;;;0.38;;
54177;SDS011;40085;53.004;6.770;2023-03-14T14:44:32;2.28;;;0.75;;
54177;SDS011;40085;53.004;6.770;2023-03-14T14:47:01;1.08;;;0.30;;
54177;SDS011;40085;53.004;6.770;2023-03-14T14:49:30;2.05;;;0.60;;
54177;SDS011;40085;53.004;6.770;2023-03-14T14:52:04;0.80;;;0.75;;
54177;SDS011;40085;53.004;6.770;2023-03-14T14:54:40;3.20;;;0.43;;
54177;SDS011;40085;53.004;6.770;2023-03-14T14:57:28;2.45;;;0.52;;
54177;SDS011;40085;53.004;6.770;2023-03-14T15:00:04;1.30;;;0.70;;
54177;SDS011;40085;53.004;6.770;2023-03-14T15:02:39;0.82;;;0.50;;
54177;SDS011;40085;53.004;6.770;2023-03-14T15:07:51;0.40;;;0.40;;
54177;SDS011;40085;53.004;6.770;2023-03-14T15:10:19;1.85;;;0.57;;
54177;SDS011;40085;53.004;6.770;2023-03-14T15:12:46;1.90;;;0.65;;
54177;SDS011;40085;53.004;6.770;2023-03-14T15:15:12;1.45;;;0.50;;
54177;SDS011;40085;53.004;6.770;2023-03-14T15:17:42;2.83;;;0.70;;
54177;SDS011;40085;53.004;6.770;2023-03-14T15:20:15;1.40;;;0.70;;
54177;SDS011;40085;53.004;6.770;2023-03-14T15:22:44;2.22;;;0.70;;
54177;SDS011;40085;53.004;6.770;2023-03-14T15:25:10;3.72;;;0.70;;
54177;SDS011;40085;53.004;6.770;2023-03-14T15:27:37;3.35;;;0.30;;
54177;SDS011;40085;53.004;6.770;2023-03-14T15:30:16;2.78;;;0.80;;
54177;SDS011;40085;53.004;6.770;2023-03-14T15:32:42;3.30;;;0.50;;
54177;SDS011;40085;53.004;6.770;2023-03-14T15:35:11;1.88;;;0.68;;
54177;SDS011;40085;53.004;6.770;2023-03-14T15:37:40;3.90;;;0.82;;
54177;SDS011;40085;53.004;6.770;2023-03-14T15:40:05;1.25;;;0.65;;
54177;SDS011;40085;53.004;6.770;2023-03-14T15:42:38;2.63;;;0.50;;
54177;SDS011;40085;53.004;6.770;2023-03-14T15:45:07;2.00;;;0.75;;
54177;SDS011;40085;53.004;6.770;2023-03-14T15:47:35;0.40;;;0.20;;
54177;SDS011;40085;53.004;6.770;2023-03-14T15:50:01;0.93;;;0.57;;
54177;SDS011;40085;53.004;6.770;2023-03-14T15:52:28;2.35;;;0.70;;
54177;SDS011;40085;53.004;6.770;2023-03-14T15:54:55;1.55;;;0.55;;
54177;SDS011;40085;53.004;6.770;2023-03-14T15:57:20;1.30;;;0.35;;
54177;SDS011;40085;53.004;6.770;2023-03-14T15:59:47;4.22;;;0.52;;
54177;SDS011;40085;53.004;6.770;2023-03-14T16:02:13;1.35;;;0.40;;
54177;SDS011;40085;53.004;6.770;2023-03-14T16:04:38;2.80;;;0.80;;
54177;SDS011;40085;53.004;6.770;2023-03-14T16:07:04;4.72;;;0.93;;
54177;SDS011;40085;53.004;6.770;2023-03-14T16:09:30;0.52;;;0.50;;
54177;SDS011;40085;53.004;6.770;2023-03-14T16:11:56;0.80;;;0.50;;